aviador You're here:

KPOB Decoded Metar

FAYETTEVILLE in NC, USA
Report Time2017-08-19 14:58:00
UTC Time2017-08-19 15:02:11
Flight Rules vfr VFR
Wind060° at 05 kt
W.Decomp.*RWY 05: 4.8 kt HW 1.5 kt RCW
W.Rank060° ranks 5
Current wind is below 060° avg. (6.3)
Visibility9999 m
Phenomena:N/A
Clouds:Few 065 Hf
Expected CloudBase > 4,000 ft AGL from Temp-Dew spread
CeilingNone
Temp30°C (ISA +15)
Dew Point20°C (55% RH)
Heat Index31.9°C
QNH1015 hPa
Density Alt2,228 ft
Elevation217 ft
Report Wrong Elevation
Raw Report
METAR KPOB 191458Z AUTO 06005KT 10SM FEW065 30/20 A2996 RMK AO2 SLP146
T03020203 52006 $=

Extra information for KPOB:More info

Metar Taf Metar & Taf Last 4 Metars F.Rules Stats Wind Profile Meteogram Temp Stats Airport Information Weather charts Add Link Nearby VenuesMetar ALERT Operation Metar Decoded Social comments

AIRNAV info for KPOB